createdAt,value
2022-12-15T00:05:01.279Z,51.50
2022-12-15T00:10:28.829Z,51.87
2022-12-15T00:15:55.468Z,51.83
2022-12-15T00:21:19.961Z,51.47
2022-12-15T00:26:47.995Z,52.01
2022-12-15T00:32:09.440Z,51.76
2022-12-15T00:37:31.478Z,51.59
2022-12-15T00:42:40.459Z,51.43
2022-12-15T00:47:46.243Z,51.43
2022-12-15T00:53:07.208Z,51.58
2022-12-15T00:58:27.225Z,51.06
2022-12-15T01:03:47.425Z,51.40
2022-12-15T01:09:08.324Z,51.43
2022-12-15T01:14:33.334Z,51.42
2022-12-15T01:19:53.681Z,51.53
2022-12-15T01:24:55.598Z,51.56
2022-12-15T01:29:58.493Z,51.37
2022-12-15T01:35:06.698Z,51.43
2022-12-15T01:40:34.243Z,51.48
2022-12-15T01:45:54.345Z,51.46
2022-12-15T01:51:12.913Z,51.42
2022-12-15T01:56:18.266Z,51.09
2022-12-15T02:01:20.075Z,51.53
2022-12-15T02:06:26.333Z,51.43
2022-12-15T02:12:19.934Z,51.59
2022-12-15T02:17:40.322Z,52.02
2022-12-15T02:23:05.222Z,52.01
2022-12-15T02:28:13.107Z,51.47
2022-12-15T02:33:34.227Z,51.92
2022-12-15T02:38:42.953Z,51.74
2022-12-15T02:43:49.910Z,51.93
2022-12-15T02:49:10.034Z,51.87
2022-12-15T02:54:35.359Z,51.72
2022-12-15T02:59:55.388Z,51.75
2022-12-15T03:05:05.644Z,52.03
2022-12-15T03:10:13.214Z,52.13
2022-12-15T03:15:16.152Z,51.90
2022-12-15T03:20:22.135Z,51.82
2022-12-15T03:25:26.054Z,51.55
2022-12-15T03:30:30.164Z,51.57
2022-12-15T03:35:33.626Z,52.09
2022-12-15T03:40:44.083Z,51.89
2022-12-15T03:45:51.498Z,51.66
2022-12-15T03:50:55.993Z,51.52
2022-12-15T03:55:59.701Z,51.55
2022-12-15T04:01:13.860Z,51.39
2022-12-15T04:06:20.531Z,51.24
2022-12-15T04:11:24.503Z,51.90
2022-12-15T04:16:26.127Z,52.00
2022-12-15T04:21:30.094Z,51.24
2022-12-15T04:26:53.488Z,51.89
2022-12-15T04:32:34.126Z,51.48
2022-12-15T04:37:56.884Z,51.37
2022-12-15T04:43:20.298Z,51.40
2022-12-15T04:48:50.821Z,51.80
2022-12-15T04:54:13.567Z,51.76
2022-12-15T04:59:36.447Z,51.35
2022-12-15T05:05:01.219Z,51.09
2022-12-15T05:10:24.913Z,51.08
2022-12-15T05:15:49.946Z,51.60
2022-12-15T05:21:13.069Z,51.66
2022-12-15T05:26:36.279Z,51.16
2022-12-15T05:31:48.986Z,51.02
2022-12-15T05:36:59.171Z,51.60
2022-12-15T05:42:02.292Z,51.07
2022-12-15T05:47:14.004Z,50.92
2022-12-15T05:52:36.693Z,51.19
2022-12-15T05:57:40.612Z,51.44
2022-12-15T06:02:53.964Z,51.27
2022-12-15T06:08:01.349Z,51.09
2022-12-15T06:13:02.857Z,51.16
2022-12-15T06:18:06.542Z,51.05
2022-12-15T06:23:08.081Z,51.09
2022-12-15T06:28:21.416Z,50.96
2022-12-15T06:33:23.099Z,51.25
2022-12-15T06:38:24.836Z,51.29
2022-12-15T06:43:28.873Z,51.64
2022-12-15T06:48:31.449Z,51.41
2022-12-15T06:53:44.805Z,51.35
2022-12-15T06:58:54.763Z,50.95
2022-12-15T07:03:57.329Z,51.35
2022-12-15T07:09:02.418Z,51.62
2022-12-15T07:14:04.793Z,51.39
2022-12-15T07:19:11.691Z,50.98
2022-12-15T07:24:20.275Z,51.05
2022-12-15T07:29:27.051Z,51.58
2022-12-15T07:34:28.797Z,50.61
2022-12-15T07:39:33.498Z,51.18
2022-12-15T07:44:37.196Z,51.48
2022-12-15T07:49:42.171Z,50.91
2022-12-15T07:54:43.650Z,50.66
2022-12-15T07:59:47.720Z,50.58
2022-12-15T08:04:59.066Z,50.54
2022-12-15T08:10:00.562Z,50.68
2022-12-15T08:15:11.682Z,50.75
2022-12-15T08:20:26.110Z,50.53
2022-12-15T08:25:40.499Z,50.99
2022-12-15T08:30:44.852Z,50.75
2022-12-15T08:35:56.784Z,50.84
2022-12-15T08:41:36.719Z,50.68
2022-12-15T08:46:43.752Z,50.34
2022-12-15T08:51:52.376Z,50.71
2022-12-15T08:57:14.073Z,50.35
2022-12-15T09:02:22.901Z,50.45
2022-12-15T09:07:26.909Z,49.96
2022-12-15T09:12:28.575Z,50.20
2022-12-15T09:17:32.558Z,50.28
2022-12-15T09:22:50.343Z,50.09
2022-12-15T09:27:52.066Z,50.43
2022-12-15T09:33:02.431Z,50.30
2022-12-15T09:38:09.158Z,50.30
2022-12-15T09:43:46.756Z,50.26
2022-12-15T09:48:58.184Z,50.82
2022-12-15T09:54:02.487Z,50.73
2022-12-15T09:59:40.521Z,50.71
2022-12-15T10:04:56.051Z,51.17
2022-12-15T10:10:15.253Z,51.40
2022-12-15T10:15:26.710Z,51.44
2022-12-15T10:20:31.800Z,50.97
2022-12-15T10:25:33.405Z,50.99
2022-12-15T10:30:37.274Z,50.58
2022-12-15T10:35:43.957Z,50.60
2022-12-15T10:40:57.886Z,50.26
2022-12-15T10:46:21.607Z,50.40
2022-12-15T10:51:45.037Z,50.07
2022-12-15T10:56:58.177Z,49.91
2022-12-15T11:02:24.380Z,49.87
2022-12-15T11:07:38.327Z,49.34
2022-12-15T11:12:58.381Z,49.16
2022-12-15T11:18:03.601Z,49.30
2022-12-15T11:23:14.590Z,49.21
2022-12-15T11:28:20.894Z,49.01
2022-12-15T11:33:27.099Z,49.14
2022-12-15T11:38:51.043Z,49.02
2022-12-15T11:44:31.469Z,48.66
2022-12-15T11:49:41.457Z,49.02
2022-12-15T11:55:16.918Z,48.97
2022-12-15T12:00:22.574Z,49.16
2022-12-15T12:05:31.901Z,49.29
2022-12-15T12:10:34.558Z,48.86
2022-12-15T12:15:57.537Z,49.01
2022-12-15T12:21:13.687Z,48.98
2022-12-15T12:26:26.592Z,48.91
2022-12-15T12:31:51.918Z,49.00
2022-12-15T12:36:58.814Z,48.88
2022-12-15T12:42:23.105Z,48.60
2022-12-15T12:47:31.990Z,48.71
2022-12-15T12:52:39.961Z,48.57
2022-12-15T12:57:55.634Z,48.37
2022-12-15T13:03:26.008Z,48.63
2022-12-15T13:08:51.685Z,48.64
2022-12-15T13:13:53.976Z,48.87
2022-12-15T13:19:06.226Z,48.88
2022-12-15T13:24:56.102Z,48.91
2022-12-15T13:30:09.192Z,48.75
2022-12-15T13:35:15.068Z,48.49
2022-12-15T13:40:22.621Z,48.79
2022-12-15T13:45:54.999Z,48.68
2022-12-15T13:51:24.677Z,49.08
2022-12-15T13:56:47.158Z,48.79
2022-12-15T14:01:56.086Z,48.69
2022-12-15T14:07:08.081Z,48.53
2022-12-15T14:12:22.213Z,48.56
2022-12-15T14:17:23.885Z,48.64
2022-12-15T14:22:32.309Z,48.43
2022-12-15T14:27:37.577Z,48.57
2022-12-15T14:32:45.452Z,48.75
2022-12-15T14:37:47.270Z,48.55
2022-12-15T14:42:53.460Z,48.70
2022-12-15T14:53:34.012Z,48.76
2022-12-15T14:58:39.678Z,48.82
2022-12-15T15:03:42.368Z,48.70
2022-12-15T15:09:09.969Z,49.14
2022-12-15T15:14:22.646Z,48.89
2022-12-15T15:19:29.089Z,48.77
2022-12-15T15:24:42.456Z,49.22
2022-12-15T15:29:44.013Z,49.05
2022-12-15T15:34:49.294Z,49.13
2022-12-15T15:39:57.238Z,49.35
2022-12-15T15:45:15.492Z,49.30
2022-12-15T15:50:32.774Z,49.25
2022-12-15T15:55:40.033Z,49.13
2022-12-15T16:00:54.945Z,49.61
2022-12-15T16:05:58.866Z,49.85
2022-12-15T16:11:06.460Z,49.51
2022-12-15T16:16:21.612Z,50.04
2022-12-15T16:21:30.188Z,49.60
2022-12-15T16:26:33.170Z,49.85
2022-12-15T16:31:46.059Z,49.89
2022-12-15T16:36:47.854Z,49.99
2022-12-15T16:41:51.635Z,49.75
2022-12-15T16:46:59.234Z,50.08
2022-12-15T16:52:03.668Z,50.21
2022-12-15T16:57:14.688Z,49.91
2022-12-15T17:02:27.460Z,49.96
2022-12-15T17:07:35.919Z,49.77
2022-12-15T17:12:45.704Z,50.04
2022-12-15T17:17:47.504Z,50.70
2022-12-15T17:23:06.603Z,51.06
2022-12-15T17:28:19.382Z,50.88
2022-12-15T17:33:30.948Z,51.25
2022-12-15T17:38:36.137Z,51.52
2022-12-15T17:44:32.436Z,51.84
2022-12-15T17:49:37.701Z,52.02
2022-12-15T17:54:39.800Z,51.57
2022-12-15T17:59:48.171Z,51.86
2022-12-15T18:04:49.978Z,51.54
2022-12-15T18:09:53.999Z,51.77
2022-12-15T18:15:22.227Z,51.64
2022-12-15T18:20:31.138Z,51.48
2022-12-15T18:25:44.533Z,51.70
2022-12-15T18:30:49.459Z,51.52
2022-12-15T18:35:51.898Z,51.51
2022-12-15T18:40:57.901Z,51.66
2022-12-15T18:46:00.156Z,51.67
2022-12-15T18:51:17.848Z,51.31
2022-12-15T18:56:23.428Z,51.66
2022-12-15T19:01:33.543Z,51.50
2022-12-15T19:06:40.222Z,51.42
2022-12-15T19:12:06.182Z,51.70
2022-12-15T19:17:31.158Z,51.41
2022-12-15T19:22:34.747Z,51.56
2022-12-15T19:27:39.907Z,50.95
2022-12-15T19:32:50.347Z,51.53
2022-12-15T19:37:59.049Z,51.92
2022-12-15T19:43:05.218Z,51.11
2022-12-15T19:48:12.586Z,51.63
2022-12-15T19:53:24.318Z,51.77
2022-12-15T19:58:42.665Z,51.29
2022-12-15T20:03:56.277Z,51.25
2022-12-15T20:08:59.756Z,51.81
2022-12-15T20:14:13.851Z,51.62
2022-12-15T20:19:18.415Z,51.40
2022-12-15T20:24:29.602Z,50.95
2022-12-15T20:29:45.940Z,51.10
2022-12-15T20:34:48.358Z,50.91
2022-12-15T20:39:55.540Z,50.82
2022-12-15T20:44:58.826Z,50.82
2022-12-15T20:50:00.499Z,51.10
2022-12-15T20:55:03.050Z,50.73
2022-12-15T21:00:05.833Z,51.13
2022-12-15T21:05:08.385Z,50.80
2022-12-15T21:10:12.815Z,50.70
2022-12-15T21:15:18.712Z,50.62
2022-12-15T21:20:20.264Z,50.95
2022-12-15T21:25:26.440Z,50.49
2022-12-15T21:30:28.112Z,50.52
2022-12-15T21:35:31.897Z,50.62
2022-12-15T21:40:33.862Z,50.81
2022-12-15T21:45:35.446Z,50.62
2022-12-15T21:50:38.445Z,51.24
2022-12-15T21:55:41.079Z,51.44
2022-12-15T22:00:45.778Z,51.47
2022-12-15T22:05:47.494Z,51.58
2022-12-15T22:10:50.963Z,51.65
2022-12-15T22:15:54.714Z,51.81
2022-12-15T22:20:56.560Z,51.99
2022-12-15T22:25:58.272Z,51.97
2022-12-15T22:31:02.126Z,51.75
2022-12-15T22:36:03.885Z,52.21
2022-12-15T22:41:06.900Z,52.56
2022-12-15T22:46:12.500Z,52.08
2022-12-15T22:51:16.127Z,52.26
2022-12-15T22:56:23.780Z,52.84
2022-12-15T23:01:26.804Z,52.62
2022-12-15T23:06:28.410Z,53.19
2022-12-15T23:11:38.707Z,53.30
2022-12-15T23:16:40.702Z,53.50
2022-12-15T23:21:42.283Z,53.48
2022-12-15T23:26:44.094Z,54.18
2022-12-15T23:31:45.652Z,53.56
2022-12-15T23:36:47.305Z,53.78
2022-12-15T23:41:48.829Z,53.61
2022-12-15T23:46:50.452Z,53.63
2022-12-15T23:51:52.073Z,54.13
2022-12-15T23:56:53.654Z,53.94
